Russellville, AR

4:58 AM CDT on May 27, 2015 (GMT -0500)
Clinton | | Change Station
CLOSE
Current Station
Airport
Location: Clinton,
Elevation: 515 ft
Nearby Weather Stations
Active Advisory: Flood Warning Active Notice: Record Report, Public Information Statement

Elev 515 ft 35.60 °N, 92.45 °W | Updated 23 minutes ago

Mostly Cloudy
Mostly Cloudy
63 °F
Feels Like 63 °F
N
0
Wind Variable Wind from North

Today
High -- | Low -- °F
--% Chance of Precip.
Yesterday
High -- | Low -- °F
Precip. -- in
6:01 AM 8:18 PM
Waxing Gibbous, 66% visible
Pressure 30.06 in
Visibility 5.0 miles
Clouds Scattered Clouds 2600 ft
Dew Point 63 °F
Humidity 100%
Rainfall 0.00 in
Snow Depth Not available.
UV 0 out of 12
Pollen 2.10 out of 12
Air Quality Not available.
Flu Activity No Activity
METAR KCCA 270935Z AUTO 00000KT 5SM BR SCT026 17/17 A3006 RMK AO2

More Conditions Fewer Conditions

Pressure 30.06 in
Visibility 5.0 miles
Clouds Scattered Clouds 2600 ft
Dew Point 63 °F
Humidity 100%
Rainfall 0.00 in
Snow Depth Not available.
UV 0 out of 12
Pollen 2.10 out of 12
Air Quality Not available.
Flu Activity No Activity
METAR KCCA 270935Z AUTO 00000KT 5SM BR SCT026 17/17 A3006 RMK AO2

More Conditions Fewer Conditions

10-Day Weather Forecast

Almanac

Astronomy

May. 27, 2015 Rise Set
Actual Time
Civil Twilight
Nautical Twilight
Astronomical Twilight
Moon
Length of Visible Light
Length of Day
Tomorrow will be .
, % of the Moon is Illuminated

Today's Extremes

State Highs State Lows

Community

WunderPhotos

Upload Photos

1,824,635 photos uploaded!

WunderBlogs® & News

Nearby

Air Quality

  Air Quality AQ Index Pollutant
Not available.

Snow Depth

Station Depth Elevation

Earthquake Activity

City Distance Mag. Time & Date
Minimum magnitude displayed is 2.5.

Coastal Water Temperatures

Place Temperature

Stations

Nearby Weather Stations

Station Location Temp. Windchill Dew Point Humidity Wind Precip. Elev Updated Type
                   
Flood Warning
Statement as of 2:44 AM CDT on May 27, 2015

The Flood Warning continues for
the Arkansas River at Dardanelle.
* Until further notice... or until the warning is cancelled.
* At 12:00 am Wednesday the stage was 36.0 feet.
* Moderate flooding is occurring and moderate flooding is forecast.
* Flood stage is 32.0 feet.
* Forecast... the river will continue rising to near 37.5 feet by this
afternoon.
* Impact... at 36.0 feet... moderate flood conditions expected with
numerous roads and highways affected, backwater up Petit Jean river
floods State Highway 154. Carden Bottoms and Holla Bend National
Wildlife Refuge flooded.


             Fld observed forecast 7 am
location stg stg day time Thu Fri Sat sun Mon

Arkansas River
Dardanelle 32 36.0 Wed 12 am 37.1 36.9 35.5 34.0 32.6




Lat... Lon 3508 9278 3507 9305 3522 9321 3528 9310
3519 9303 3520 9280